Time;durP1;ratioP1;P1;durP2;ratioP2;P2;SDS_P1;SDS_P2;PMS_P1;PMS_P2;Temp;Humidity;BMP_temperature;BMP_pressure;BME280_temperature;BME280_humidity;BME280_pressure;Samples;Min_cycle;Max_cycle;Signal;HPM_P1;HPM_P2
2022/04/03 00:01:10;;;;;;;4.03;1.52;;;;;;;0.79;55.27;100769.66;4896987;29;20058;-74
2022/04/03 00:03:35;;;;;;;4.10;1.60;;;;;;;0.78;54.81;100774.78;4896846;29;20052;-74
2022/04/03 00:06:00;;;;;;;5.07;1.60;;;;;;;0.68;55.45;100770.94;4897437;29;20083;-74
2022/04/03 00:08:28;;;;;;;4.40;1.30;;;;;;;0.66;55.61;100777.84;4897337;29;20068;-74
2022/04/03 00:10:53;;;;;;;3.63;1.57;;;;;;;0.58;55.76;100779.25;4891989;29;20753;-74
2022/04/03 00:13:19;;;;;;;5.33;1.60;;;;;;;0.56;55.78;100770.50;4897017;29;20039;-74
2022/04/03 00:15:45;;;;;;;4.67;1.50;;;;;;;0.55;55.88;100784.31;4897157;29;20127;-74
2022/04/03 00:18:11;;;;;;;7.10;1.40;;;;;;;0.50;55.97;100784.16;4895173;29;20053;-74
2022/04/03 00:20:38;;;;;;;4.00;1.70;;;;;;;0.47;55.73;100785.72;4891643;29;20036;-74
2022/04/03 00:23:06;;;;;;;4.57;1.40;;;;;;;0.38;56.22;100781.94;4893006;29;20029;-74
2022/04/03 00:25:31;;;;;;;5.53;1.67;;;;;;;0.35;56.60;100787.03;4893245;29;20123;-74
2022/04/03 00:27:57;;;;;;;3.87;1.30;;;;;;;0.35;56.71;100793.94;4891214;29;20123;-74
2022/04/03 00:30:22;;;;;;;7.10;1.90;;;;;;;0.25;56.84;100790.09;4889697;29;20072;-74
2022/04/03 00:32:47;;;;;;;4.83;1.47;;;;;;;0.17;56.73;100787.19;4893166;29;20036;-74
2022/04/03 00:35:13;;;;;;;7.07;1.80;;;;;;;0.14;56.65;100791.38;4895587;29;20548;-74
2022/04/03 00:37:38;;;;;;;4.43;2.07;;;;;;;0.09;57.09;100798.09;4896796;29;20580;-74
2022/04/03 00:40:05;;;;;;;4.20;1.53;;;;;;;0.03;57.32;100798.75;4896942;29;20035;-74
2022/04/03 00:42:34;;;;;;;5.10;1.50;;;;;;;0.03;57.59;100797.81;4896613;29;20075;-74
2022/04/03 00:44:59;;;;;;;3.67;1.60;;;;;;;-0.01;57.33;100795.13;4896442;29;20047;-74
2022/04/03 00:47:25;;;;;;;4.07;1.63;;;;;;;-0.06;57.54;100794.03;4896661;29;20036;-74
2022/04/03 00:49:51;;;;;;;5.83;1.80;;;;;;;-0.11;57.52;100799.88;4896735;29;20123;-74
2022/04/03 00:52:17;;;;;;;4.07;1.60;;;;;;;-0.13;57.78;100799.81;4896424;29;20072;-74
2022/04/03 00:54:44;;;;;;;6.57;2.10;;;;;;;-0.15;57.93;100792.81;4892937;29;20044;-74
2022/04/03 00:57:10;;;;;;;3.83;1.60;;;;;;;-0.17;58.53;100792.72;4896375;29;20036;-74
2022/04/03 00:59:36;;;;;;;5.23;1.80;;;;;;;-0.16;57.70;100801.38;4896242;29;20120;-74
2022/04/03 01:02:02;;;;;;;7.07;2.13;;;;;;;-0.15;58.35;100798.00;4896377;29;20492;-74
2022/04/03 01:04:28;;;;;;;8.93;2.50;;;;;;;-0.28;58.58;100794.88;4896692;29;20037;-74
2022/04/03 01:06:54;;;;;;;4.47;2.10;;;;;;;-0.30;59.10;100787.84;4896272;29;20044;-74
2022/04/03 01:09:19;;;;;;;6.43;2.20;;;;;;;-0.31;58.80;100805.13;4891653;29;20049;-74
2022/04/03 01:11:45;;;;;;;4.13;2.10;;;;;;;-0.35;58.44;100797.16;4895899;29;20048;-74
2022/04/03 01:14:11;;;;;;;6.07;2.07;;;;;;;-0.39;59.56;100795.22;4895437;29;20045;-74
2022/04/03 01:16:36;;;;;;;6.53;2.20;;;;;;;-0.47;59.64;100800.13;4896267;29;20484;-74
2022/04/03 01:19:03;;;;;;;6.20;2.23;;;;;;;-0.56;59.88;100800.59;4896232;29;20088;-74
2022/04/03 01:21:28;;;;;;;6.33;2.37;;;;;;;-0.61;59.53;100799.50;4895946;29;20081;-74
2022/04/03 01:23:55;;;;;;;5.67;2.43;;;;;;;-0.69;60.33;100803.47;4896085;29;20111;-74
2022/04/03 01:26:24;;;;;;;6.40;3.50;;;;;;;-0.76;60.69;100802.34;4897070;29;20389;-74
2022/04/03 01:28:51;;;;;;;5.43;2.27;;;;;;;-0.78;60.62;100808.28;4892852;29;20103;-74
2022/04/03 01:31:16;;;;;;;3.77;1.80;;;;;;;-0.85;60.99;100808.81;4895564;29;20135;-74
2022/04/03 01:33:42;;;;;;;6.50;2.00;;;;;;;-0.90;60.98;100814.66;4896193;29;20072;-74
2022/04/03 01:36:07;;;;;;;5.67;2.27;;;;;;;-0.97;61.61;100816.91;4896107;29;20047;-74
2022/04/03 01:38:32;;;;;;;3.83;1.77;;;;;;;-1.02;61.14;100811.56;4896019;29;20041;-74
2022/04/03 01:40:58;;;;;;;4.83;1.63;;;;;;;-1.07;61.37;100815.63;4895871;29;20029;-74
2022/04/03 01:43:23;;;;;;;6.37;2.40;;;;;;;-1.14;61.92;100805.81;4895615;29;20065;-74
2022/04/03 01:45:48;;;;;;;4.53;1.80;;;;;;;-1.17;62.20;100808.28;4890675;29;20503;-74
2022/04/03 01:48:14;;;;;;;8.10;1.90;;;;;;;-1.22;61.95;100813.22;4896075;29;20060;-74
2022/04/03 01:50:39;;;;;;;6.13;1.93;;;;;;;-1.24;61.52;100812.25;4895975;29;20414;-75
2022/04/03 01:53:05;;;;;;;6.77;2.30;;;;;;;-1.24;61.54;100816.56;4887499;29;20081;-74
2022/04/03 01:55:31;;;;;;;6.07;2.07;;;;;;;-1.36;62.45;100812.59;4891746;29;20514;-74
2022/04/03 01:57:56;;;;;;;5.30;2.40;;;;;;;-1.37;62.68;100812.53;4895828;29;20033;-74
2022/04/03 02:00:22;;;;;;;5.50;1.93;;;;;;;-1.44;62.45;100813.97;4891305;29;20044;-74
2022/04/03 02:02:49;;;;;;;4.17;2.07;;;;;;;-1.49;62.93;100810.25;4888792;29;20047;-75
2022/04/03 02:05:14;;;;;;;6.03;2.53;;;;;;;-1.53;62.47;100813.50;4889140;29;20423;-74
2022/04/03 02:07:40;;;;;;;6.73;2.17;;;;;;;-1.57;62.70;100806.44;4890139;29;20041;-74
2022/04/03 02:10:12;;;;;;;5.40;1.90;;;;;;;-1.59;63.37;100815.81;4887880;29;20044;-74
2022/04/03 02:12:42;;;;;;;4.80;2.17;;;;;;;-1.64;64.11;100817.31;4891138;29;20041;-75
2022/04/03 02:15:09;;;;;;;6.30;2.03;;;;;;;-1.69;63.41;100822.25;4894230;29;20306;-74
2022/04/03 02:17:34;;;;;;;5.80;3.03;;;;;;;-1.72;63.71;100816.06;4890099;29;20045;-74
2022/04/03 02:20:00;;;;;;;4.77;2.20;;;;;;;-1.76;63.82;100825.34;4887814;29;20044;-75
2022/04/03 02:22:26;;;;;;;5.17;2.33;;;;;;;-1.83;64.14;100825.91;4895493;29;20044;-74
2022/04/03 02:24:52;;;;;;;5.33;2.20;;;;;;;-1.87;63.70;100830.00;4895373;29;20400;-75
2022/04/03 02:27:17;;;;;;;5.60;1.53;;;;;;;-1.89;63.78;100833.34;4897080;29;20045;-75
2022/04/03 02:29:42;;;;;;;5.90;2.47;;;;;;;-1.93;64.36;100831.44;4892078;29;20040;-74
2022/04/03 02:32:08;;;;;;;5.07;1.83;;;;;;;-1.98;63.97;100837.25;4895335;29;20068;-74
2022/04/03 02:34:33;;;;;;;5.20;1.70;;;;;;;-1.99;63.78;100832.03;4899067;29;20044;-74
2022/04/03 02:36:58;;;;;;;4.73;2.00;;;;;;;-2.00;64.26;100840.56;4889877;29;20033;-74
2022/04/03 02:39:24;;;;;;;6.13;2.13;;;;;;;-2.06;64.45;100836.00;4897255;29;20053;-74
2022/04/03 02:41:49;;;;;;;4.13;1.80;;;;;;;-2.09;63.54;100845.31;4898759;29;20130;-74
2022/04/03 02:44:16;;;;;;;6.00;2.00;;;;;;;-2.15;64.72;100840.69;4897527;29;20467;-74
2022/04/03 02:46:41;;;;;;;5.57;1.73;;;;;;;-2.20;64.43;100839.59;4897729;29;20416;-74
2022/04/03 02:49:08;;;;;;;5.33;1.97;;;;;;;-2.22;65.12;100842.09;4898984;29;20033;-74
2022/04/03 02:51:36;;;;;;;4.67;2.10;;;;;;;-2.23;64.60;100839.44;4898685;29;20032;-74
2022/04/03 02:54:02;;;;;;;7.50;2.20;;;;;;;-2.26;64.76;100837.56;4891781;29;20036;-74
2022/04/03 02:56:27;;;;;;;9.70;3.17;;;;;;;-2.27;65.35;100846.16;4897159;29;20041;-74
2022/04/03 02:58:54;;;;;;;4.20;1.70;;;;;;;-2.30;65.08;100839.94;4898261;29;20039;-74
2022/04/03 03:01:19;;;;;;;7.50;2.27;;;;;;;-2.35;65.42;100850.06;4898471;29;20096;-74
2022/04/03 03:03:44;;;;;;;6.57;2.10;;;;;;;-2.38;65.35;100842.16;4898557;29;20037;-74
2022/04/03 03:06:10;;;;;;;3.83;1.70;;;;;;;-2.39;65.27;100840.34;4898790;29;20052;-74
2022/04/03 03:08:35;;;;;;;6.60;2.17;;;;;;;-2.40;65.57;100848.94;4898493;29;20408;-74
2022/04/03 03:11:01;;;;;;;4.80;1.97;;;;;;;-2.44;65.04;100841.81;4898187;29;20753;-74
2022/04/03 03:13:27;;;;;;;5.10;1.97;;;;;;;-2.45;64.87;100840.94;4898090;29;20523;-74
2022/04/03 03:15:53;;;;;;;7.13;2.40;;;;;;;-2.47;65.77;100850.31;4898300;29;20045;-74
2022/04/03 03:18:19;;;;;;;5.43;2.30;;;;;;;-2.49;65.35;100853.63;4892144;29;20033;-75
2022/04/03 03:20:44;;;;;;;7.50;2.13;;;;;;;-2.53;65.83;100850.00;4891134;29;20047;-74
2022/04/03 03:23:10;;;;;;;6.63;2.30;;;;;;;-2.53;65.95;100843.94;4897157;29;20037;-74
2022/04/03 03:25:35;;;;;;;6.87;2.70;;;;;;;-2.57;65.31;100845.47;4893182;29;20510;-74
2022/04/03 03:28:01;;;;;;;5.97;2.10;;;;;;;-2.57;65.27;100847.16;4890571;29;20489;-75
2022/04/03 03:30:27;;;;;;;5.97;2.00;;;;;;;-2.61;64.83;100848.72;4894436;29;20130;-74
2022/04/03 03:32:52;;;;;;;7.00;2.13;;;;;;;-2.65;65.95;100855.44;4892715;29;20037;-74
2022/04/03 03:35:18;;;;;;;4.77;1.90;;;;;;;-2.71;64.95;100849.94;4891291;29;20044;-74
2022/04/03 03:37:44;;;;;;;7.90;2.00;;;;;;;-2.74;65.91;100847.19;4890060;29;20052;-74
2022/04/03 03:40:11;;;;;;;7.37;3.27;;;;;;;-2.78;66.05;100850.41;4897047;29;20029;-74
2022/04/03 03:42:38;;;;;;;8.10;2.47;;;;;;;-2.80;65.58;100852.03;4888539;29;20415;-74
2022/04/03 03:45:04;;;;;;;6.00;2.63;;;;;;;-2.85;65.82;100856.09;4894349;29;20119;-74
2022/04/03 03:47:31;;;;;;;4.70;2.00;;;;;;;-2.91;65.76;100851.47;4893453;29;20041;-74
2022/04/03 03:49:56;;;;;;;5.07;2.10;;;;;;;-2.96;65.90;100852.94;4895489;29;20041;-74
2022/04/03 03:52:22;;;;;;;5.00;1.93;;;;;;;-3.01;65.01;100858.63;4896915;29;20448;-74
2022/04/03 03:54:48;;;;;;;5.73;2.20;;;;;;;-3.06;65.89;100862.69;4895886;29;20423;-74
2022/04/03 03:57:13;;;;;;;3.80;1.80;;;;;;;-3.13;65.85;100861.47;4897562;29;20040;-74
2022/04/03 03:59:39;;;;;;;7.30;2.63;;;;;;;-3.19;66.04;100867.19;4894480;29;20025;-74
2022/04/03 04:02:05;;;;;;;5.43;1.93;;;;;;;-3.25;65.41;100869.41;4895998;29;20047;-74
2022/04/03 04:04:30;;;;;;;3.77;1.70;;;;;;;-3.28;66.64;100874.41;4896481;29;20119;-74
2022/04/03 04:06:56;;;;;;;4.53;2.43;;;;;;;-3.31;66.87;100879.41;4896929;29;20067;-74
2022/04/03 04:09:22;;;;;;;5.33;2.10;;;;;;;-3.35;66.20;100874.91;4895642;29;20037;-74
2022/04/03 04:11:47;;;;;;;5.67;2.47;;;;;;;-3.41;67.07;100880.59;4895951;29;20522;-74
2022/04/03 04:14:14;;;;;;;6.77;2.50;;;;;;;-3.44;66.84;100882.13;4892231;29;20041;-74
2022/04/03 04:16:40;;;;;;;6.10;2.50;;;;;;;-3.45;67.53;100882.94;4896327;29;20071;-74
2022/04/03 04:19:06;;;;;;;6.97;2.50;;;;;;;-3.50;68.16;100886.94;4891691;29;20056;-74
2022/04/03 04:21:31;;;;;;;7.03;2.23;;;;;;;-3.50;68.07;100885.25;4889055;29;20040;-74
2022/04/03 04:23:56;;;;;;;4.47;2.00;;;;;;;-3.49;67.72;100881.84;4894423;29;20108;-74
2022/04/03 04:26:22;;;;;;;6.53;2.03;;;;;;;-3.48;67.61;100888.81;4890803;29;20041;-75
2022/04/03 04:28:48;;;;;;;5.70;2.10;;;;;;;-3.50;67.92;100894.69;4892369;29;20092;-74
2022/04/03 04:31:14;;;;;;;6.40;2.20;;;;;;;-3.54;67.96;100902.25;4896754;29;20468;-74
2022/04/03 04:33:39;;;;;;;3.83;2.20;;;;;;;-3.62;68.83;100900.91;4896216;29;20124;-74
2022/04/03 04:36:06;;;;;;;5.70;2.00;;;;;;;-3.68;67.88;100910.91;4895652;29;20044;-74
2022/04/03 04:38:31;;;;;;;6.10;2.13;;;;;;;-3.72;68.68;100908.97;4895258;29;20071;-74
2022/04/03 04:40:57;;;;;;;5.27;2.07;;;;;;;-3.72;68.94;100918.38;4887770;29;20063;-74
2022/04/03 04:43:22;;;;;;;4.33;2.33;;;;;;;-3.69;68.88;100916.88;4895014;29;20399;-73
2022/04/03 04:45:47;;;;;;;5.97;2.63;;;;;;;-3.68;68.55;100920.34;4892626;29;20040;-74
2022/04/03 04:48:13;;;;;;;7.50;2.73;;;;;;;-3.68;69.50;100915.19;4885922;29;20041;-73
2022/04/03 04:50:38;;;;;;;5.30;2.17;;;;;;;-3.70;69.57;100922.81;4888151;29;20033;-72
2022/04/03 04:53:04;;;;;;;5.57;2.30;;;;;;;-3.67;68.43;100922.97;4888678;29;20509;-74
2022/04/03 04:55:29;;;;;;;5.93;2.20;;;;;;;-3.64;68.23;100920.59;4889023;29;20072;-74
2022/04/03 04:57:56;;;;;;;4.77;2.33;;;;;;;-3.60;69.02;100926.81;4885292;29;20048;-74
2022/04/03 05:00:24;;;;;;;4.57;2.10;;;;;;;-3.56;69.09;100924.50;4903840;29;20040;-74
2022/04/03 05:02:50;;;;;;;6.27;2.23;;;;;;;-3.50;68.93;100923.06;4891839;29;20107;-73
2022/04/03 05:05:18;;;;;;;4.67;1.93;;;;;;;-3.47;67.98;100925.81;4894672;29;20475;-74
2022/04/03 05:07:44;;;;;;;5.37;2.10;;;;;;;-3.45;68.44;100926.81;4888851;29;20063;-74
2022/04/03 05:10:12;;;;;;;6.43;3.10;;;;;;;-3.40;68.39;100935.69;4892508;29;20796;-74
2022/04/03 05:12:37;;;;;;;5.13;2.37;;;;;;;-3.39;67.93;100943.50;4894021;29;20467;-74
2022/04/03 05:15:03;;;;;;;9.00;2.93;;;;;;;-3.35;67.99;100947.16;4895047;29;20055;-73
2022/04/03 05:17:28;;;;;;;6.30;2.13;;;;;;;-3.35;68.78;100936.84;4877907;29;20032;-74
2022/04/03 05:19:54;;;;;;;7.87;2.80;;;;;;;-3.27;68.24;100939.84;4892927;29;20137;-74
2022/04/03 05:22:23;;;;;;;4.80;2.07;;;;;;;-3.26;68.80;100942.50;4895533;29;20507;-74
2022/04/03 05:24:53;;;;;;;6.50;2.50;;;;;;;-3.17;68.76;100947.28;4895560;29;20044;-74
2022/04/03 05:27:19;;;;;;;5.13;2.20;;;;;;;-3.15;68.89;100941.41;4889342;29;20037;-74
2022/04/03 05:29:45;;;;;;;9.90;2.80;;;;;;;-3.08;68.52;100943.53;4892714;29;20033;-74
2022/04/03 05:32:10;;;;;;;6.60;2.97;;;;;;;-3.01;68.05;100943.84;4891773;29;20040;-74
2022/04/03 05:34:36;;;;;;;8.03;3.23;;;;;;;-2.92;68.03;100945.25;4895796;29;20045;-74
2022/04/03 05:37:01;;;;;;;5.77;2.73;;;;;;;-2.86;67.89;100947.28;4895089;29;20033;-74
2022/04/03 05:39:26;;;;;;;7.60;2.97;;;;;;;-2.78;68.35;100948.56;4895023;29;20547;-74
2022/04/03 05:41:55;;;;;;;8.77;3.10;;;;;;;-2.65;67.77;100952.72;4893384;29;20060;-74
2022/04/03 05:44:23;;;;;;;7.07;2.60;;;;;;;-2.51;67.27;100956.94;4893816;29;20044;-74
2022/04/03 05:46:50;;;;;;;7.03;3.00;;;;;;;-2.34;67.11;100954.34;4895140;29;20068;-74
2022/04/03 05:49:16;;;;;;;6.43;2.77;;;;;;;-2.17;66.97;100952.63;4895689;29;20033;-74
2022/04/03 05:51:42;;;;;;;7.10;2.87;;;;;;;-1.95;66.56;100962.38;4892848;29;20472;-74
2022/04/03 05:54:07;;;;;;;5.53;2.60;;;;;;;-1.73;65.62;100954.00;4894296;29;20400;-74
2022/04/03 05:56:33;;;;;;;6.23;2.80;;;;;;;-1.55;64.89;100952.31;4893658;29;20052;-74
2022/04/03 05:58:58;;;;;;;10.27;2.80;;;;;;;-1.36;64.95;100959.31;4890405;29;20037;-74
2022/04/03 06:01:24;;;;;;;5.43;2.47;;;;;;;-1.25;64.54;100954.66;4892152;29;20044;-75
2022/04/03 06:03:50;;;;;;;5.50;3.20;;;;;;;-1.12;64.22;100954.41;4894912;29;20052;-75
2022/04/03 06:06:16;;;;;;;7.67;2.60;;;;;;;-0.99;63.30;100954.19;4895046;29;20040;-75
2022/04/03 06:08:42;;;;;;;6.37;2.50;;;;;;;-0.81;63.01;100959.34;4896089;29;20051;-74
2022/04/03 06:11:07;;;;;;;6.13;2.67;;;;;;;-0.71;62.84;100953.78;4897310;29;20131;-74
2022/04/03 06:13:32;;;;;;;4.67;2.37;;;;;;;-0.61;62.81;100952.47;4896221;29;20048;-75
2022/04/03 06:15:58;;;;;;;6.47;2.50;;;;;;;-0.49;62.76;100955.63;4898153;29;20136;-74
2022/04/03 06:18:23;;;;;;;4.40;1.83;;;;;;;-0.34;61.43;100957.09;4892448;29;20025;-74
2022/04/03 06:20:49;;;;;;;6.30;2.90;;;;;;;-0.37;61.97;100957.84;4891967;29;20762;-74
2022/04/03 06:23:19;;;;;;;6.13;2.40;;;;;;;-0.34;62.08;100958.03;4879744;29;20053;-73
2022/04/03 06:25:47;;;;;;;6.17;2.93;;;;;;;-0.22;61.73;100966.31;4888553;29;20040;-74
2022/04/03 06:28:13;;;;;;;7.03;2.37;;;;;;;-0.12;61.84;100965.03;4892843;29;20040;-74
2022/04/03 06:30:39;;;;;;;7.40;2.60;;;;;;;-0.08;61.68;100961.78;4894771;29;20083;-75
2022/04/03 06:33:04;;;;;;;5.60;2.80;;;;;;;-0.03;60.98;100965.44;4895831;29;20033;-74
2022/04/03 06:35:30;;;;;;;6.90;2.93;;;;;;;0.06;61.58;100969.25;4895700;29;20503;-75
2022/04/03 06:37:56;;;;;;;4.60;2.83;;;;;;;0.16;60.49;100971.44;4891444;29;20037;-75
2022/04/03 06:40:23;;;;;;;6.27;2.63;;;;;;;0.19;60.56;100967.25;4891724;29;20064;-74
2022/04/03 06:42:48;;;;;;;9.47;2.97;;;;;;;0.25;60.84;100964.03;4893590;29;20516;-74
2022/04/03 06:45:15;;;;;;;5.70;2.43;;;;;;;0.39;59.70;100956.81;4890947;29;20084;-74
2022/04/03 06:47:41;;;;;;;5.10;2.70;;;;;;;0.49;59.92;100965.88;4894570;29;20403;-74
2022/04/03 06:50:08;;;;;;;6.43;2.80;;;;;;;0.60;59.84;100964.59;4894613;29;20041;-74
2022/04/03 06:52:34;;;;;;;6.20;3.05;;;;;;;0.73;59.53;100964.25;4886780;29;20420;-74
2022/04/03 06:54:59;;;;;;;5.45;2.78;;;;;;;0.65;59.04;100969.19;4890699;29;20043;-74
2022/04/03 06:57:24;;;;;;;5.80;2.60;;;;;;;0.71;59.29;100968.53;4892889;29;20036;-74
2022/04/03 06:59:50;;;;;;;5.03;2.35;;;;;;;0.86;59.11;100969.16;4892764;29;20492;-75
2022/04/03 07:02:15;;;;;;;8.20;2.83;;;;;;;1.02;58.40;100970.66;4889540;29;20044;-75
2022/04/03 07:04:40;;;;;;;5.30;2.80;;;;;;;1.08;58.08;100975.19;4892061;29;20056;-74
2022/04/03 07:07:06;;;;;;;6.35;3.45;;;;;;;1.15;57.76;100974.59;4893143;29;20037;-74
2022/04/03 07:09:31;;;;;;;6.18;2.78;;;;;;;1.31;57.71;100974.38;4888504;29;20036;-74
2022/04/03 07:11:57;;;;;;;7.00;3.70;;;;;;;1.50;57.71;100986.34;4885204;29;20037;-74
2022/04/03 07:14:23;;;;;;;6.13;2.50;;;;;;;1.33;57.04;100977.03;4888807;29;20410;-74
2022/04/03 07:16:49;;;;;;;7.20;2.78;;;;;;;1.30;56.93;100984.72;4888051;29;20430;-74
2022/04/03 07:19:15;;;;;;;6.57;3.15;;;;;;;1.36;57.22;100986.66;4894082;29;20757;-74
2022/04/03 07:21:40;;;;;;;6.47;2.90;;;;;;;1.50;57.14;100983.75;4889114;29;20097;-74
2022/04/03 07:24:06;;;;;;;8.32;3.38;;;;;;;1.66;56.20;100987.81;4889153;29;20040;-74
2022/04/03 07:26:32;;;;;;;11.43;4.15;;;;;;;1.80;56.29;100988.31;4891363;29;20076;-73
2022/04/03 07:28:58;;;;;;;8.27;3.75;;;;;;;1.96;55.84;100990.66;4889397;29;20068;-74
2022/04/03 07:31:24;;;;;;;8.50;3.60;;;;;;;2.21;54.85;100985.44;4894688;29;20067;-74
2022/04/03 07:33:49;;;;;;;8.60;3.67;;;;;;;2.32;54.66;100987.56;4890933;29;20040;-76
2022/04/03 07:36:14;;;;;;;10.45;3.85;;;;;;;2.36;54.14;100985.97;4888400;29;20123;-76
2022/04/03 07:38:40;;;;;;;9.38;3.05;;;;;;;2.55;54.23;100988.34;4889158;29;20048;-76
2022/04/03 07:41:05;;;;;;;6.07;2.60;;;;;;;2.62;53.44;100981.66;4885467;29;20076;-77
2022/04/03 07:43:32;;;;;;;7.55;2.90;;;;;;;2.63;52.66;100988.63;4889483;29;20063;-76
2022/04/03 07:45:58;;;;;;;5.82;2.95;;;;;;;2.55;52.88;100996.19;4902814;29;20044;-75
2022/04/03 07:48:23;;;;;;;6.47;2.78;;;;;;;2.60;52.13;100991.13;4891318;29;20048;-76
2022/04/03 07:50:48;;;;;;;5.15;2.63;;;;;;;2.68;52.33;100992.25;4901210;29;20048;-75
2022/04/03 07:53:14;;;;;;;5.38;2.40;;;;;;;2.70;52.09;100990.59;4890098;29;20044;-76
2022/04/03 07:55:39;;;;;;;8.68;2.83;;;;;;;2.73;51.93;100982.00;4888647;29;20041;-77
2022/04/03 07:58:06;;;;;;;5.65;2.45;;;;;;;2.76;50.76;100997.72;4885900;29;20127;-77
2022/04/03 08:00:33;;;;;;;4.13;2.00;;;;;;;2.61;50.46;100991.16;4895721;29;20037;-74
2022/04/03 08:02:58;;;;;;;5.30;1.98;;;;;;;2.65;50.55;100997.38;4889754;29;20072;-74
2022/04/03 08:05:23;;;;;;;4.82;1.83;;;;;;;2.83;50.58;100997.97;4888785;29;20527;-74
2022/04/03 08:07:49;;;;;;;5.32;2.17;;;;;;;3.07;50.94;100987.44;4887597;29;20059;-74
2022/04/03 08:10:17;;;;;;;5.57;2.85;;;;;;;3.38;50.65;100988.41;4887228;29;20068;-73
2022/04/03 08:12:45;;;;;;;4.70;2.20;;;;;;;3.74;49.42;100996.41;4888953;29;20045;-74
2022/04/03 08:15:12;;;;;;;6.18;2.45;;;;;;;3.85;48.87;100990.63;4893913;29;20120;-75
2022/04/03 08:17:38;;;;;;;5.18;2.03;;;;;;;4.03;47.96;100998.09;4888071;29;20047;-74
2022/04/03 08:20:05;;;;;;;6.40;1.83;;;;;;;4.15;46.22;100999.31;4895871;29;20119;-75
2022/04/03 08:22:31;;;;;;;3.75;2.13;;;;;;;4.16;46.18;100997.56;4895779;29;20033;-76
2022/04/03 08:24:56;;;;;;;4.68;1.60;;;;;;;4.19;43.11;100997.66;4892538;29;20048;-76
2022/04/03 08:27:23;;;;;;;6.03;1.88;;;;;;;4.46;44.11;100991.41;4886046;29;20060;-75
2022/04/03 08:29:49;;;;;;;4.10;1.45;;;;;;;4.66;41.87;101005.84;4888022;29;20500;-75
2022/04/03 08:32:14;;;;;;;3.60;1.38;;;;;;;4.65;42.53;100991.03;4885780;29;20079;-74
2022/04/03 08:34:40;;;;;;;4.53;1.23;;;;;;;4.93;39.85;100991.72;4892996;29;20064;-75
2022/04/03 08:37:06;;;;;;;6.00;2.40;;;;;;;4.84;38.03;100988.00;4897462;29;20045;-75
2022/04/03 08:39:32;;;;;;;4.10;1.20;;;;;;;4.84;38.22;100987.13;4886387;29;20089;-74
2022/04/03 08:41:57;;;;;;;2.85;1.17;;;;;;;4.75;37.75;100979.97;4894927;29;20213;-74
2022/04/03 08:44:23;;;;;;;2.65;1.20;;;;;;;4.73;39.43;100979.03;4885687;29;20037;-75
2022/04/03 08:46:49;;;;;;;4.47;1.40;;;;;;;4.72;40.76;100995.56;4887452;29;20043;-75
2022/04/03 08:49:19;;;;;;;5.85;1.30;;;;;;;4.74;41.59;100982.53;4893335;29;20036;-75
2022/04/03 08:51:46;;;;;;;3.88;1.80;;;;;;;4.70;40.66;100999.00;4892754;29;20101;-75
2022/04/03 08:54:14;;;;;;;2.97;1.40;;;;;;;4.59;40.08;101003.97;4886626;29;20052;-74
2022/04/03 08:56:40;;;;;;;4.20;1.45;;;;;;;4.60;40.21;100985.69;4888324;29;20040;-75
2022/04/03 08:59:05;;;;;;;4.90;2.78;;;;;;;4.80;40.25;100982.69;4890699;29;20131;-75
2022/04/03 09:01:31;;;;;;;3.15;1.40;;;;;;;5.05;40.55;100984.16;4890725;29;20037;-75
2022/04/03 09:03:56;;;;;;;4.75;1.50;;;;;;;5.28;41.30;100987.31;4894568;29;20040;-75
2022/04/03 09:06:22;;;;;;;3.95;2.30;;;;;;;5.42;40.52;100982.38;4887682;29;20031;-74
2022/04/03 09:08:48;;;;;;;3.25;1.40;;;;;;;5.34;41.56;100976.09;4891081;29;20043;-75
2022/04/03 09:11:15;;;;;;;4.78;1.80;;;;;;;5.36;40.23;100990.97;4890791;29;20033;-75
2022/04/03 09:13:42;;;;;;;3.50;1.65;;;;;;;5.21;40.34;100981.06;4891092;29;20583;-75
2022/04/03 09:16:09;;;;;;;3.45;1.80;;;;;;;5.12;39.45;100986.06;4890647;29;20033;-75
2022/04/03 09:18:49;;;;;;;4.55;1.85;;;;;;;4.94;40.15;100985.63;4890489;29;20036;-74
2022/04/03 09:21:23;;;;;;;4.78;2.22;;;;;;;5.24;40.36;100986.38;4889561;29;20045;-74
2022/04/03 09:24:04;;;;;;;4.00;2.25;;;;;;;5.28;40.10;100977.72;4888367;29;20088;-74
2022/04/03 09:26:31;;;;;;;4.85;1.92;;;;;;;5.23;40.59;100978.47;4889299;29;20175;-75
2022/04/03 09:29:06;;;;;;;5.28;1.70;;;;;;;5.04;39.51;100982.38;4890076;29;20100;-74
2022/04/03 09:31:32;;;;;;;4.22;1.83;;;;;;;4.90;40.32;100983.78;4889238;29;20033;-75
2022/04/03 09:34:01;;;;;;;4.43;2.08;;;;;;;4.87;40.51;100981.97;4888150;29;20048;-75
2022/04/03 09:36:31;;;;;;;5.72;1.67;;;;;;;4.98;39.34;100972.69;4888957;29;20029;-75
2022/04/03 09:39:16;;;;;;;4.18;1.65;;;;;;;5.09;37.48;100980.78;4890952;29;20041;-75
2022/04/03 09:42:03;;;;;;;4.00;1.85;;;;;;;5.03;39.12;100976.28;4889352;29;20624;-75
2022/04/03 09:44:34;;;;;;;4.95;1.60;;;;;;;4.97;38.96;100970.88;4890667;29;20041;-75
2022/04/03 09:47:17;;;;;;;3.30;1.60;;;;;;;4.91;38.12;100975.09;4889504;29;20507;-75
2022/04/03 09:49:48;;;;;;;4.68;1.38;;;;;;;4.83;37.69;100977.53;4891227;29;20119;-75
2022/04/03 09:52:32;;;;;;;4.50;1.50;;;;;;;4.76;38.13;100967.75;4890367;29;20040;-75
2022/04/03 09:54:57;;;;;;;4.07;1.70;;;;;;;4.56;37.78;100986.47;4888207;29;20056;-75
2022/04/03 09:57:26;;;;;;;4.95;2.03;;;;;;;4.35;38.34;100984.19;4886727;29;20046;-75
2022/04/03 09:59:54;;;;;;;3.78;1.70;;;;;;;4.37;38.60;100976.34;4891003;29;20123;-75
2022/04/03 10:02:24;;;;;;;5.82;2.17;;;;;;;4.49;38.57;100986.25;4889976;29;20040;-75
2022/04/03 10:04:51;;;;;;;4.68;1.95;;;;;;;4.65;37.20;100977.97;4893197;29;20047;-75
2022/04/03 10:07:17;;;;;;;3.72;1.73;;;;;;;4.71;35.59;100990.28;4890290;29;20037;-75
2022/04/03 10:09:50;;;;;;;4.57;1.90;;;;;;;4.91;36.24;100977.72;4891360;29;20384;-75
2022/04/03 10:12:21;;;;;;;5.32;1.52;;;;;;;5.25;35.71;100982.00;4889927;29;20510;-75
2022/04/03 10:14:49;;;;;;;4.90;1.60;;;;;;;5.47;36.07;100975.50;4888398;29;20033;-75
2022/04/03 10:17:17;;;;;;;5.72;1.83;;;;;;;5.71;36.71;100969.88;4892062;29;21676;-74
2022/04/03 10:19:43;;;;;;;4.90;2.20;;;;;;;6.14;35.82;100973.41;4888677;29;20480;-75
2022/04/03 10:22:26;;;;;;;3.35;1.23;;;;;;;6.06;34.11;100964.53;4888221;29;20092;-74
2022/04/03 10:24:57;;;;;;;3.40;1.40;;;;;;;5.97;34.81;100965.22;4889871;29;20044;-75
2022/04/03 10:27:27;;;;;;;4.30;1.40;;;;;;;5.75;34.70;100965.63;4889011;29;20044;-75
2022/04/03 10:29:58;;;;;;;6.18;1.50;;;;;;;5.80;34.52;100956.13;4892263;29;20024;-75
2022/04/03 10:32:29;;;;;;;3.53;1.33;;;;;;;5.50;33.67;100965.09;4905867;29;20048;-73
2022/04/03 10:34:59;;;;;;;2.83;1.38;;;;;;;5.43;34.36;100961.47;4902620;29;20032;-75
2022/04/03 10:37:31;;;;;;;5.15;1.30;;;;;;;5.54;34.81;100959.06;4890263;29;20033;-74
2022/04/03 10:40:09;;;;;;;2.63;1.10;;;;;;;5.49;34.31;100963.34;4887517;29;20564;-74
2022/04/03 10:43:02;;;;;;;4.13;1.10;;;;;;;5.53;34.62;100956.41;4885463;29;20045;-74
2022/04/03 10:45:29;;;;;;;;;;;;;;;5.69;34.72;100942.81;4884967;29;20092;-75
2022/04/03 10:48:26;;;;;;;5.05;1.30;;;;;;;6.11;32.77;100942.78;4890359;29;20335;-75
2022/04/03 10:50:58;;;;;;;3.25;1.05;;;;;;;6.31;33.20;100937.00;4875641;29;20133;-73
2022/04/03 10:53:26;;;;;;;5.53;1.65;;;;;;;6.39;33.29;100931.91;4887941;29;20051;-75
2022/04/03 10:55:56;;;;;;;4.47;1.50;;;;;;;6.69;33.93;100936.78;4890529;29;20431;-74
2022/04/03 10:58:22;;;;;;;2.92;1.20;;;;;;;7.22;33.36;100923.59;4886896;29;20115;-75
2022/04/03 11:00:49;;;;;;;2.47;1.27;;;;;;;7.50;32.72;100932.72;4891643;29;20548;-76
2022/04/03 11:03:14;;;;;;;2.75;1.10;;;;;;;7.19;31.43;100916.53;4890243;29;20056;-75
2022/04/03 11:05:45;;;;;;;3.80;1.30;;;;;;;7.36;32.11;100915.88;4888154;29;20053;-75
2022/04/03 11:08:11;;;;;;;3.53;1.10;;;;;;;7.56;31.38;100916.16;4886959;29;20049;-75
2022/04/03 11:10:52;;;;;;;3.50;1.25;;;;;;;7.04;30.06;100908.44;4890324;29;20091;-75
2022/04/03 11:13:39;;;;;;;2.65;1.20;;;;;;;7.03;30.36;100907.56;4890242;29;20049;-75
2022/04/03 11:16:15;;;;;;;2.55;1.10;;;;;;;7.00;30.02;100912.78;4889168;29;20116;-75
2022/04/03 11:18:49;;;;;;;2.50;1.15;;;;;;;6.87;30.58;100910.84;4889988;29;20036;-74
2022/04/03 11:21:24;;;;;;;3.05;1.10;;;;;;;6.71;30.21;100901.88;4889575;29;20515;-75
2022/04/03 11:23:57;;;;;;;5.05;1.35;;;;;;;6.66;31.11;100897.41;4890149;29;20414;-75
2022/04/03 11:26:23;;;;;;;2.78;1.20;;;;;;;6.86;30.77;100898.56;4897548;29;20040;-74
2022/04/03 11:28:49;;;;;;;2.30;0.93;;;;;;;6.73;28.79;100896.63;4888418;29;20047;-74